createdAt,value
2018-09-11T00:02:26.180Z,70.44
2018-09-11T00:04:54.872Z,71.42
2018-09-11T00:07:23.468Z,71.55
2018-09-11T00:09:52.102Z,72.15
2018-09-11T00:12:20.719Z,72.43
2018-09-11T00:14:49.336Z,72.88
2018-09-11T00:17:18.124Z,73.19
2018-09-11T00:19:46.736Z,72.88
2018-09-11T00:22:15.412Z,73.16
2018-09-11T00:24:43.995Z,72.88
2018-09-11T00:27:12.697Z,73.78
2018-09-11T00:29:41.305Z,73.50
2018-09-11T00:32:09.908Z,73.54
2018-09-11T00:34:38.820Z,74.15
2018-09-11T00:37:07.771Z,74.37
2018-09-11T00:39:36.389Z,74.15
2018-09-11T00:42:05.024Z,74.33
2018-09-11T00:44:33.616Z,74.41
2018-09-11T00:47:02.520Z,74.46
2018-09-11T00:49:31.144Z,74.25
2018-09-11T00:51:59.831Z,74.59
2018-09-11T00:54:28.670Z,74.07
2018-09-11T00:56:57.261Z,74.08
2018-09-11T00:59:25.888Z,74.73
2018-09-11T01:01:54.500Z,74.13
2018-09-11T01:04:23.132Z,74.32
2018-09-11T01:06:51.753Z,73.83
2018-09-11T01:09:20.411Z,74.10
2018-09-11T01:11:49.051Z,74.33
2018-09-11T01:14:17.641Z,74.75
2018-09-11T01:16:46.384Z,74.42
2018-09-11T01:19:15.111Z,73.97
2018-09-11T01:21:43.749Z,73.27
2018-09-11T01:24:12.557Z,71.47
2018-09-11T01:26:41.642Z,71.26
2018-09-11T01:29:10.692Z,73.11
2018-09-11T01:31:39.286Z,74.01
2018-09-11T01:34:08.552Z,74.51
2018-09-11T01:36:37.788Z,74.45
2018-09-11T01:39:08.837Z,73.48
2018-09-11T01:41:38.141Z,74.23
2018-09-11T01:44:07.036Z,74.47
2018-09-11T01:46:35.900Z,74.41
2018-09-11T01:49:04.721Z,73.55
2018-09-11T01:51:33.613Z,73.08
2018-09-11T01:54:02.284Z,72.99
2018-09-11T01:56:30.896Z,73.82
2018-09-11T01:59:00.076Z,74.32
2018-09-11T02:01:28.668Z,74.00
2018-09-11T02:03:57.289Z,73.35
2018-09-11T02:06:28.021Z,73.85
2018-09-11T02:08:57.102Z,74.30
2018-09-11T02:11:25.696Z,73.77
2018-09-11T02:13:54.284Z,73.36
2018-09-11T02:16:23.018Z,73.33
2018-09-11T02:18:51.797Z,73.80
2018-09-11T02:21:20.396Z,73.59
2018-09-11T02:23:49.015Z,73.79
2018-09-11T02:26:17.634Z,74.36
2018-09-11T02:28:46.268Z,73.56
2018-09-11T02:31:14.865Z,72.92
2018-09-11T02:33:43.480Z,73.06
2018-09-11T02:36:12.077Z,73.01
2018-09-11T02:38:40.674Z,72.18
2018-09-11T02:41:09.298Z,71.32
2018-09-11T02:43:37.892Z,72.17
2018-09-11T02:46:06.501Z,72.09
2018-09-11T02:48:35.080Z,72.00
2018-09-11T02:51:03.680Z,71.09
2018-09-11T02:53:32.366Z,70.85
2018-09-11T02:56:00.948Z,71.25
2018-09-11T02:58:29.556Z,71.01
2018-09-11T03:00:58.196Z,70.84
2018-09-11T03:03:26.768Z,70.25
2018-09-11T03:05:55.845Z,70.59
2018-09-11T03:08:24.445Z,70.03
2018-09-11T03:10:53.072Z,71.15
2018-09-11T03:13:21.664Z,71.47
2018-09-11T03:15:50.243Z,71.42
2018-09-11T03:18:18.868Z,71.65
2018-09-11T03:20:47.450Z,71.67
2018-09-11T03:23:16.084Z,72.07
2018-09-11T03:25:44.688Z,71.26
2018-09-11T03:28:13.268Z,72.82
2018-09-11T03:30:41.915Z,72.54
2018-09-11T03:33:10.508Z,72.97
2018-09-11T03:35:39.085Z,72.23
2018-09-11T03:38:07.710Z,72.62
2018-09-11T03:40:36.352Z,73.19
2018-09-11T03:43:05.079Z,74.51
2018-09-11T03:45:33.786Z,74.36
2018-09-11T03:48:02.396Z,74.33
2018-09-11T03:50:31.012Z,74.36
2018-09-11T03:52:59.605Z,73.58
2018-09-11T03:55:28.219Z,73.71
2018-09-11T03:57:56.830Z,73.93
2018-09-11T04:00:25.519Z,74.10
2018-09-11T04:02:54.129Z,74.17
2018-09-11T04:05:23.196Z,73.89
2018-09-11T04:07:51.969Z,73.82
2018-09-11T04:10:20.551Z,74.09
2018-09-11T04:12:49.124Z,75.09
2018-09-11T04:15:17.705Z,75.36
2018-09-11T04:17:46.292Z,76.05
2018-09-11T04:20:14.938Z,75.98
2018-09-11T04:22:43.561Z,76.87
2018-09-11T04:25:12.189Z,75.91
2018-09-11T04:27:40.800Z,77.14
2018-09-11T04:30:09.695Z,76.50
2018-09-11T04:32:38.271Z,77.86
2018-09-11T04:35:07.312Z,78.54
2018-09-11T04:37:36.004Z,79.81
2018-09-11T04:40:04.733Z,80.20
2018-09-11T04:42:33.380Z,80.00
2018-09-11T04:45:01.976Z,79.28
2018-09-11T04:47:30.561Z,79.82
2018-09-11T04:49:59.190Z,79.32
2018-09-11T04:52:27.935Z,78.23
2018-09-11T04:54:56.572Z,78.20
2018-09-11T04:57:25.172Z,77.73
2018-09-11T04:59:53.755Z,78.50
2018-09-11T05:02:22.448Z,78.97
2018-09-11T05:04:51.045Z,78.55
2018-09-11T05:07:19.670Z,77.83
2018-09-11T05:09:48.275Z,78.19
2018-09-11T05:12:16.871Z,78.32
2018-09-11T05:14:45.490Z,79.59
2018-09-11T05:17:14.118Z,79.10
2018-09-11T05:19:42.700Z,80.03
2018-09-11T05:22:11.303Z,80.06
2018-09-11T05:24:39.996Z,79.48
2018-09-11T05:27:08.714Z,79.88
2018-09-11T05:29:37.379Z,80.60
2018-09-11T05:32:06.044Z,81.61
2018-09-11T05:34:34.684Z,81.45
2018-09-11T05:37:03.282Z,81.15
2018-09-11T05:39:31.912Z,82.50
2018-09-11T05:42:00.529Z,83.06
2018-09-11T05:44:29.162Z,83.39
2018-09-11T05:46:57.770Z,82.74
2018-09-11T05:49:26.362Z,83.34
2018-09-11T05:51:54.991Z,82.66
2018-09-11T05:54:23.659Z,83.02
2018-09-11T05:56:52.262Z,83.38
2018-09-11T05:59:20.841Z,84.07
2018-09-11T06:01:49.688Z,84.12
2018-09-11T06:04:18.356Z,84.79
2018-09-11T06:06:46.957Z,84.59
2018-09-11T06:09:15.540Z,84.43
2018-09-11T06:11:44.154Z,84.90
2018-09-11T06:14:12.752Z,84.55
2018-09-11T06:16:41.491Z,84.92
2018-09-11T06:19:10.107Z,84.01
2018-09-11T06:21:38.688Z,84.46
2018-09-11T06:24:07.329Z,84.71
2018-09-11T06:26:35.937Z,85.05
2018-09-11T06:29:04.623Z,85.15
2018-09-11T06:31:33.375Z,85.79
2018-09-11T06:34:02.003Z,84.88
2018-09-11T06:36:30.594Z,85.00
2018-09-11T06:38:59.193Z,84.86
2018-09-11T06:41:27.828Z,85.00
2018-09-11T06:43:56.778Z,83.84
2018-09-11T06:46:25.687Z,83.92
2018-09-11T06:48:54.336Z,83.01
2018-09-11T06:51:22.949Z,81.39
2018-09-11T06:53:51.603Z,80.92
2018-09-11T06:56:20.232Z,80.90
2018-09-11T06:58:48.891Z,79.96
2018-09-11T07:01:17.697Z,79.42
2018-09-11T07:03:46.308Z,78.76
2018-09-11T07:06:15.217Z,78.30
2018-09-11T07:08:43.820Z,77.55
2018-09-11T07:11:12.510Z,76.99
2018-09-11T07:13:41.196Z,75.45
2018-09-11T07:16:09.814Z,75.73
2018-09-11T07:18:38.444Z,75.85
2018-09-11T07:21:07.065Z,75.19
2018-09-11T07:23:35.671Z,75.13
2018-09-11T07:26:04.330Z,74.77
2018-09-11T07:28:33.066Z,72.99
2018-09-11T07:31:01.744Z,72.78
2018-09-11T07:33:30.335Z,72.84
2018-09-11T07:35:58.965Z,72.81
2018-09-11T07:38:27.710Z,74.04
2018-09-11T07:40:56.344Z,72.55
2018-09-11T07:43:24.952Z,72.75
2018-09-11T07:45:53.585Z,71.92
2018-09-11T07:48:22.360Z,71.55
2018-09-11T07:50:51.544Z,71.64
2018-09-11T07:53:20.729Z,69.38
2018-09-11T07:55:50.204Z,69.60
2018-09-11T07:58:19.673Z,67.22
2018-09-11T08:00:49.438Z,67.23
2018-09-11T08:03:18.646Z,65.66
2018-09-11T08:05:47.831Z,63.07
2018-09-11T08:08:17.027Z,63.06
2018-09-11T08:10:46.496Z,62.28
2018-09-11T08:13:15.782Z,61.99
2018-09-11T08:15:45.121Z,61.48
2018-09-11T08:18:14.308Z,59.58
2018-09-11T08:20:43.514Z,59.24
2018-09-11T08:23:12.712Z,59.37
2018-09-11T08:25:41.962Z,59.32
2018-09-11T08:28:11.231Z,56.97
2018-09-11T08:30:40.483Z,56.82
2018-09-11T08:33:09.693Z,55.12
2018-09-11T08:35:38.896Z,54.70
2018-09-11T08:38:08.204Z,52.83
2018-09-11T08:40:37.395Z,52.18
2018-09-11T08:43:06.589Z,48.13
2018-09-11T08:45:35.801Z,45.63
2018-09-11T08:48:05.036Z,45.85
2018-09-11T08:50:34.274Z,45.48
2018-09-11T08:53:03.457Z,45.79
2018-09-11T08:55:32.684Z,46.71
2018-09-11T08:58:01.982Z,45.39
2018-09-11T09:00:31.281Z,45.47
2018-09-11T09:03:00.505Z,43.78
2018-09-11T09:05:29.733Z,42.63
2018-09-11T09:07:58.924Z,43.42
2018-09-11T09:10:28.106Z,45.20
2018-09-11T09:12:57.352Z,44.66
2018-09-11T09:15:26.626Z,44.86
2018-09-11T09:17:56.050Z,43.15
2018-09-11T09:20:25.273Z,43.86
2018-09-11T09:22:54.522Z,43.31
2018-09-11T09:25:23.726Z,42.34
2018-09-11T09:27:52.946Z,43.44
2018-09-11T09:30:22.124Z,44.35
2018-09-11T09:32:51.326Z,44.71
2018-09-11T09:35:20.537Z,44.17
2018-09-11T09:37:49.771Z,43.09
2018-09-11T09:40:19.039Z,41.48
2018-09-11T09:42:48.305Z,40.43
2018-09-11T09:45:17.526Z,40.78
2018-09-11T09:47:46.890Z,39.83
2018-09-11T09:50:16.081Z,40.24
2018-09-11T09:52:45.340Z,40.59
2018-09-11T09:55:14.564Z,41.33
2018-09-11T09:57:43.800Z,40.10
2018-09-11T10:00:15.563Z,39.54
2018-09-11T10:02:44.756Z,39.04
2018-09-11T10:05:13.921Z,38.40
2018-09-11T10:07:44.833Z,38.66
2018-09-11T10:10:14.069Z,37.61
2018-09-11T10:12:43.237Z,38.45
2018-09-11T10:15:12.467Z,38.53
2018-09-11T10:17:41.739Z,38.04
2018-09-11T10:20:11.107Z,37.80
2018-09-11T10:22:40.409Z,39.99
2018-09-11T10:25:09.937Z,40.89
2018-09-11T10:27:39.166Z,41.63
2018-09-11T10:30:08.921Z,42.64
2018-09-11T10:32:41.040Z,42.69
2018-09-11T10:35:10.281Z,40.59
2018-09-11T10:37:39.487Z,41.71
2018-09-11T10:40:08.708Z,41.41
2018-09-11T10:42:37.921Z,41.19
2018-09-11T10:45:07.223Z,40.68
2018-09-11T10:47:36.596Z,39.85
2018-09-11T10:50:05.858Z,38.51
2018-09-11T10:52:35.044Z,40.08
2018-09-11T10:55:04.562Z,40.11
2018-09-11T10:57:34.179Z,39.17
2018-09-11T11:00:03.648Z,40.24
2018-09-11T11:02:32.910Z,39.55
2018-09-11T11:05:04.767Z,38.29
2018-09-11T11:07:34.134Z,37.66
2018-09-11T11:10:04.139Z,36.46
2018-09-11T11:12:33.547Z,34.96
2018-09-11T11:15:03.034Z,36.30
2018-09-11T11:17:32.502Z,36.69
2018-09-11T11:20:01.890Z,36.18
2018-09-11T11:22:31.279Z,36.56
2018-09-11T11:25:00.636Z,38.45
2018-09-11T11:27:30.001Z,35.56
2018-09-11T11:29:59.290Z,36.87
2018-09-11T11:32:29.172Z,35.68
2018-09-11T11:34:58.493Z,36.11
2018-09-11T11:37:30.656Z,36.43
2018-09-11T11:39:59.945Z,35.53
2018-09-11T11:42:29.436Z,34.53
2018-09-11T11:44:58.913Z,34.92
2018-09-11T11:47:28.294Z,34.21
2018-09-11T11:49:57.579Z,35.39
2018-09-11T11:52:26.868Z,38.36
2018-09-11T11:54:56.167Z,37.45
2018-09-11T11:57:25.681Z,37.16
2018-09-11T11:59:54.987Z,37.49
2018-09-11T12:02:24.366Z,38.22
2018-09-11T12:04:54.343Z,39.04
2018-09-11T12:07:23.647Z,39.08
2018-09-11T12:09:53.019Z,40.92
2018-09-11T12:12:22.377Z,39.86
2018-09-11T12:14:51.932Z,39.61
2018-09-11T12:17:21.196Z,39.13
2018-09-11T12:19:50.502Z,38.64
2018-09-11T12:22:19.798Z,40.70
2018-09-11T12:24:49.180Z,41.12
2018-09-11T12:27:18.484Z,39.86
2018-09-11T12:29:47.837Z,40.95
2018-09-11T12:32:17.163Z,42.02
2018-09-11T12:34:46.478Z,40.57
2018-09-11T12:37:16.999Z,40.68
2018-09-11T12:39:46.326Z,41.56
2018-09-11T12:42:15.600Z,40.46
2018-09-11T12:44:44.871Z,40.55
2018-09-11T12:47:14.772Z,40.24
2018-09-11T12:49:44.072Z,42.17
2018-09-11T12:52:13.356Z,40.83
2018-09-11T12:54:42.645Z,40.78
2018-09-11T12:57:11.973Z,41.81
2018-09-11T12:59:41.344Z,42.52
2018-09-11T13:02:10.986Z,42.90
2018-09-11T13:04:40.328Z,42.41
2018-09-11T13:07:09.600Z,43.39
2018-09-11T13:09:40.305Z,43.84
2018-09-11T13:12:09.637Z,44.14
2018-09-11T13:14:38.867Z,44.10
2018-09-11T13:17:08.196Z,42.87
2018-09-11T13:19:37.548Z,42.40
2018-09-11T13:22:06.841Z,42.46
2018-09-11T13:24:36.200Z,41.77
2018-09-11T13:27:05.447Z,42.01
2018-09-11T13:29:34.624Z,42.69
2018-09-11T13:32:03.864Z,43.40
2018-09-11T13:34:33.088Z,43.57
2018-09-11T13:37:02.325Z,41.83
2018-09-11T13:39:31.528Z,42.88
2018-09-11T13:42:00.765Z,43.91
2018-09-11T13:44:30.001Z,43.40
2018-09-11T13:46:59.312Z,42.25
2018-09-11T13:49:28.775Z,42.38
2018-09-11T13:51:57.981Z,43.59
2018-09-11T13:54:27.235Z,43.99
2018-09-11T13:56:56.444Z,44.00
2018-09-11T13:59:25.909Z,43.78
2018-09-11T14:01:55.857Z,43.81
2018-09-11T14:04:25.094Z,43.42
2018-09-11T14:06:54.336Z,42.96
2018-09-11T14:09:23.531Z,43.46
2018-09-11T14:11:52.725Z,44.98
2018-09-11T14:14:21.964Z,44.46
2018-09-11T14:16:51.178Z,44.01
2018-09-11T14:19:20.536Z,44.62
2018-09-11T14:21:50.187Z,43.49
2018-09-11T14:24:19.439Z,43.27
2018-09-11T14:26:48.776Z,43.27
2018-09-11T14:29:19.140Z,44.06
2018-09-11T14:31:48.507Z,43.96
2018-09-11T14:34:17.759Z,44.19
2018-09-11T14:36:48.196Z,43.02
2018-09-11T14:39:17.469Z,44.45
2018-09-11T14:41:46.716Z,44.34
2018-09-11T14:44:15.911Z,45.40
2018-09-11T14:46:45.244Z,43.70
2018-09-11T14:49:14.591Z,44.33
2018-09-11T14:51:43.889Z,44.78
2018-09-11T14:54:13.096Z,45.05
2018-09-11T14:56:42.573Z,44.80
2018-09-11T14:59:11.855Z,43.74
2018-09-11T15:01:41.246Z,43.38
2018-09-11T15:04:11.263Z,44.55
2018-09-11T15:06:40.670Z,42.38
2018-09-11T15:09:10.478Z,43.48
2018-09-11T15:11:40.353Z,43.20
2018-09-11T15:14:09.879Z,42.40
2018-09-11T15:16:39.149Z,45.02
2018-09-11T15:19:08.412Z,44.61
2018-09-11T15:21:39.433Z,44.98
2018-09-11T15:24:08.997Z,45.47
2018-09-11T15:26:38.213Z,46.74
2018-09-11T15:29:07.495Z,46.42
2018-09-11T15:31:37.026Z,46.99
2018-09-11T15:34:06.425Z,46.73
2018-09-11T15:36:35.621Z,47.01
2018-09-11T15:39:05.510Z,46.05
2018-09-11T15:41:36.339Z,46.54
2018-09-11T15:44:05.702Z,47.56
2018-09-11T15:46:35.104Z,47.47
2018-09-11T15:49:04.328Z,48.68
2018-09-11T15:51:33.520Z,49.09
2018-09-11T15:54:02.762Z,49.72
2018-09-11T15:56:31.966Z,49.36
2018-09-11T15:59:01.162Z,49.81
2018-09-11T16:01:30.337Z,49.69
2018-09-11T16:03:59.549Z,49.17
2018-09-11T16:06:28.771Z,49.89
2018-09-11T16:08:57.965Z,50.41
2018-09-11T16:11:27.189Z,51.22
2018-09-11T16:13:57.328Z,50.78
2018-09-11T16:16:26.606Z,50.43
2018-09-11T16:18:55.852Z,51.18
2018-09-11T16:21:25.068Z,51.64
2018-09-11T16:23:54.304Z,51.20
2018-09-11T16:26:23.518Z,51.80
2018-09-11T16:28:52.758Z,52.07
2018-09-11T16:31:21.960Z,53.37
2018-09-11T16:33:51.151Z,53.92
2018-09-11T16:36:20.328Z,52.75
2018-09-11T16:38:49.497Z,53.26
2018-09-11T16:41:18.720Z,54.33
2018-09-11T16:43:47.929Z,54.07
2018-09-11T16:46:17.120Z,54.51
2018-09-11T16:48:46.381Z,54.56
2018-09-11T16:51:15.585Z,54.25
2018-09-11T16:53:44.822Z,54.95
2018-09-11T16:56:14.037Z,55.74
2018-09-11T16:58:43.248Z,55.42
2018-09-11T17:01:12.447Z,56.80
2018-09-11T17:03:41.663Z,56.17
2018-09-11T17:06:11.324Z,56.77
2018-09-11T17:08:41.539Z,57.16
2018-09-11T17:11:11.013Z,57.85
2018-09-11T17:13:40.224Z,57.27
2018-09-11T17:16:09.798Z,57.29
2018-09-11T17:18:39.190Z,57.85
2018-09-11T17:21:08.435Z,59.13
2018-09-11T17:23:37.639Z,59.28
2018-09-11T17:26:06.867Z,58.76
2018-09-11T17:28:36.124Z,59.00
2018-09-11T17:31:05.467Z,58.86
2018-09-11T17:33:34.723Z,59.60
2018-09-11T17:36:03.945Z,58.93
2018-09-11T17:38:33.229Z,59.69
2018-09-11T17:41:02.418Z,59.30
2018-09-11T17:43:31.734Z,60.47
2018-09-11T17:46:00.989Z,59.52
2018-09-11T17:48:30.319Z,59.84
2018-09-11T17:50:59.687Z,59.60
2018-09-11T17:53:29.020Z,60.37
2018-09-11T17:55:58.297Z,60.17
2018-09-11T17:58:27.456Z,60.72
2018-09-11T18:00:56.642Z,61.22
2018-09-11T18:03:25.876Z,60.76
2018-09-11T18:05:55.081Z,61.75
2018-09-11T18:08:24.326Z,62.07
2018-09-11T18:10:53.610Z,62.16
2018-09-11T18:13:22.932Z,62.49
2018-09-11T18:15:52.196Z,62.46
2018-09-11T18:18:21.412Z,61.99
2018-09-11T18:20:51.362Z,62.58
2018-09-11T18:23:20.533Z,62.27
2018-09-11T18:25:50.485Z,62.55
2018-09-11T18:28:19.709Z,63.75
2018-09-11T18:30:48.932Z,63.33
2018-09-11T18:33:18.148Z,63.60
2018-09-11T18:35:47.353Z,64.55
2018-09-11T18:38:16.539Z,64.32
2018-09-11T18:40:45.749Z,64.23
2018-09-11T18:43:14.896Z,65.54
2018-09-11T18:45:44.154Z,66.00
2018-09-11T18:48:13.343Z,66.01
2018-09-11T18:50:42.530Z,66.17
2018-09-11T18:53:11.720Z,65.99
2018-09-11T18:55:40.933Z,66.33
2018-09-11T18:58:10.171Z,66.91
2018-09-11T19:00:39.493Z,67.53
2018-09-11T19:03:08.694Z,67.02
2018-09-11T19:05:37.865Z,67.18
2018-09-11T19:08:07.169Z,66.90
2018-09-11T19:10:36.352Z,67.22
2018-09-11T19:13:05.560Z,68.18
2018-09-11T19:15:34.877Z,67.87
2018-09-11T19:18:04.108Z,68.77
2018-09-11T19:20:33.285Z,68.35
2018-09-11T19:23:02.488Z,69.68
2018-09-11T19:25:36.177Z,69.74
2018-09-11T19:28:07.504Z,69.86
2018-09-11T19:30:36.394Z,70.94
2018-09-11T19:33:07.987Z,71.82
2018-09-11T19:35:41.737Z,71.14
2018-09-11T19:38:17.708Z,72.03
2018-09-11T19:40:52.109Z,72.02
2018-09-11T19:43:23.558Z,73.02
2018-09-11T19:45:52.896Z,72.81
2018-09-11T19:48:21.512Z,72.85
2018-09-11T19:50:50.096Z,73.05
2018-09-11T19:53:37.484Z,73.54
2018-09-11T19:56:15.951Z,73.41
2018-09-11T19:58:48.878Z,73.60
2018-09-11T20:01:30.289Z,74.36
2018-09-11T20:04:07.181Z,74.29
2018-09-11T20:06:38.943Z,73.86
2018-09-11T20:09:11.166Z,73.04
2018-09-11T20:11:40.016Z,73.05
2018-09-11T20:14:08.616Z,72.76
2018-09-11T20:16:37.294Z,72.58
2018-09-11T20:19:07.266Z,72.62
2018-09-11T20:21:35.885Z,73.08
2018-09-11T20:24:04.776Z,73.56
2018-09-11T20:26:37.109Z,74.05
2018-09-11T20:29:09.808Z,74.78
2018-09-11T20:31:38.696Z,75.19
2018-09-11T20:34:07.348Z,75.95
2018-09-11T20:36:36.500Z,76.06
2018-09-11T20:39:08.561Z,76.90
2018-09-11T20:41:37.380Z,77.35
2018-09-11T20:44:06.008Z,77.25
2018-09-11T20:46:34.618Z,77.54
2018-09-11T20:49:04.210Z,78.11
2018-09-11T20:51:32.845Z,78.45
2018-09-11T20:54:01.603Z,78.51
2018-09-11T20:56:30.392Z,78.41
2018-09-11T20:58:59.091Z,77.98
2018-09-11T21:01:27.706Z,77.44
2018-09-11T21:03:56.808Z,78.02
2018-09-11T21:06:25.477Z,78.69
2018-09-11T21:08:54.102Z,79.47
2018-09-11T21:11:22.737Z,79.85
2018-09-11T21:13:51.331Z,80.09
2018-09-11T21:16:19.973Z,80.22
2018-09-11T21:18:48.643Z,80.84
2018-09-11T21:21:17.232Z,81.17
2018-09-11T21:23:45.838Z,81.30
2018-09-11T21:26:14.497Z,81.41
2018-09-11T21:28:43.113Z,81.62
2018-09-11T21:31:11.768Z,81.75
2018-09-11T21:33:40.365Z,81.76
2018-09-11T21:36:08.976Z,81.89
2018-09-11T21:38:37.633Z,81.61
2018-09-11T21:41:06.553Z,81.46
2018-09-11T21:43:35.265Z,81.76
2018-09-11T21:46:03.940Z,82.10
2018-09-11T21:48:32.732Z,82.63
2018-09-11T21:51:01.344Z,83.08
2018-09-11T21:53:29.968Z,83.39
2018-09-11T21:56:00.788Z,83.94
2018-09-11T21:58:29.468Z,84.56
2018-09-11T22:01:02.653Z,85.07
2018-09-11T22:03:31.422Z,85.05
2018-09-11T22:06:00.080Z,85.38
2018-09-11T22:08:28.696Z,85.14
2018-09-11T22:10:57.301Z,85.07
2018-09-11T22:13:26.290Z,85.85
2018-09-11T22:15:55.236Z,86.07
2018-09-11T22:18:23.843Z,86.43
2018-09-11T22:20:52.551Z,86.37
2018-09-11T22:23:21.198Z,86.84
2018-09-11T22:25:49.860Z,86.56
2018-09-11T22:28:18.748Z,86.86
2018-09-11T22:30:47.418Z,87.21
2018-09-11T22:33:16.013Z,87.07
2018-09-11T22:35:44.684Z,87.01
2018-09-11T22:38:13.312Z,86.95
2018-09-11T22:40:41.977Z,87.09
2018-09-11T22:43:10.778Z,87.16
2018-09-11T22:45:39.584Z,87.68
2018-09-11T22:48:08.224Z,87.64
2018-09-11T22:50:36.984Z,87.80
2018-09-11T22:53:05.713Z,88.16
2018-09-11T22:55:34.362Z,87.71
2018-09-11T22:58:03.006Z,88.12
2018-09-11T23:00:31.595Z,88.01
2018-09-11T23:03:00.716Z,88.42
2018-09-11T23:05:29.325Z,88.41
2018-09-11T23:07:57.968Z,88.70
2018-09-11T23:10:26.579Z,88.79
2018-09-11T23:12:55.318Z,89.07
2018-09-11T23:15:24.060Z,89.45
2018-09-11T23:17:52.632Z,89.55
2018-09-11T23:20:21.429Z,89.50
2018-09-11T23:22:50.119Z,89.31
2018-09-11T23:25:19.236Z,89.70
2018-09-11T23:27:47.873Z,89.40
2018-09-11T23:30:16.584Z,89.83
2018-09-11T23:32:45.184Z,89.95
2018-09-11T23:35:13.821Z,89.68
2018-09-11T23:37:42.506Z,89.65
2018-09-11T23:40:11.212Z,89.79
2018-09-11T23:42:39.909Z,89.57
2018-09-11T23:45:08.506Z,89.78
2018-09-11T23:47:37.116Z,89.76
2018-09-11T23:50:06.165Z,89.62
2018-09-11T23:52:35.308Z,89.92
2018-09-11T23:55:04.259Z,89.94
2018-09-11T23:57:33.084Z,89.81
